Terminal Aerodrome Forecast
Issued by NWS

Home | Current Version | Previous Version | Text Only | Print | Product List | Glossary On
Versions: 1 2 3 4 5 6 7 8 9 10 11 12 13 14 15 16 17 18 19 20 21 22 23 24
000
FTUS41 KOKX 251700
TAFHPN
TAF
KHPN 251728Z 2518/2618 VRB05KT P6SM FEW060
     FM252100 17007KT P6SM FEW060
     FM260000 VRB03KT P6SM FEW250
     FM261600 20007KT P6SM SCT050 SCT150
      AMD NOT SKED=

USA.gov is the U.S. government's official web portal to all federal, state and local government web resources and services.